sensor_id;sensor_type;location;lat;lon;timestamp;temperature;humidity
59025;DHT22;44806;48.008;13.666;2023-04-24T00:01:37;13.00;99.90
59025;DHT22;44806;48.008;13.666;2023-04-24T00:04:05;13.00;99.90
59025;DHT22;44806;48.008;13.666;2023-04-24T00:06:32;13.00;99.90
59025;DHT22;44806;48.008;13.666;2023-04-24T00:09:01;13.00;99.90
59025;DHT22;44806;48.008;13.666;2023-04-24T00:11:29;13.10;99.90
59025;DHT22;44806;48.008;13.666;2023-04-24T00:13:56;13.10;99.90
59025;DHT22;44806;48.008;13.666;2023-04-24T00:16:23;13.10;99.90
59025;DHT22;44806;48.008;13.666;2023-04-24T00:18:50;13.20;99.90
59025;DHT22;44806;48.008;13.666;2023-04-24T00:21:19;13.20;99.90
59025;DHT22;44806;48.008;13.666;2023-04-24T00:23:51;13.30;99.90
59025;DHT22;44806;48.008;13.666;2023-04-24T00:26:19;13.40;99.90
59025;DHT22;44806;48.008;13.666;2023-04-24T00:28:46;13.30;99.90
59025;DHT22;44806;48.008;13.666;2023-04-24T00:31:13;13.30;99.90
59025;DHT22;44806;48.008;13.666;2023-04-24T00:33:41;13.20;99.90
59025;DHT22;44806;48.008;13.666;2023-04-24T00:36:08;13.30;99.90
59025;DHT22;44806;48.008;13.666;2023-04-24T00:38:35;13.30;99.90
59025;DHT22;44806;48.008;13.666;2023-04-24T00:41:02;13.20;99.90
59025;DHT22;44806;48.008;13.666;2023-04-24T00:43:30;13.20;99.90
59025;DHT22;44806;48.008;13.666;2023-04-24T00:46:00;13.10;99.90
59025;DHT22;44806;48.008;13.666;2023-04-24T00:48:27;13.00;99.90
59025;DHT22;44806;48.008;13.666;2023-04-24T00:50:55;13.00;99.90
59025;DHT22;44806;48.008;13.666;2023-04-24T00:53:23;12.90;99.90
59025;DHT22;44806;48.008;13.666;2023-04-24T00:55:51;13.00;99.90
59025;DHT22;44806;48.008;13.666;2023-04-24T00:58:18;13.10;99.90
59025;DHT22;44806;48.008;13.666;2023-04-24T01:00:48;13.10;99.90
59025;DHT22;44806;48.008;13.666;2023-04-24T01:03:18;13.00;99.90
59025;DHT22;44806;48.008;13.666;2023-04-24T01:05:46;13.10;99.90
59025;DHT22;44806;48.008;13.666;2023-04-24T01:08:14;13.10;99.90
59025;DHT22;44806;48.008;13.666;2023-04-24T01:10:41;13.10;99.90
59025;DHT22;44806;48.008;13.666;2023-04-24T01:13:10;13.10;99.90
59025;DHT22;44806;48.008;13.666;2023-04-24T01:15:37;13.10;99.90
59025;DHT22;44806;48.008;13.666;2023-04-24T01:18:06;13.10;99.90
59025;DHT22;44806;48.008;13.666;2023-04-24T01:20:34;13.10;99.90
59025;DHT22;44806;48.008;13.666;2023-04-24T01:23:03;13.20;99.90
59025;DHT22;44806;48.008;13.666;2023-04-24T01:25:30;13.20;99.90
59025;DHT22;44806;48.008;13.666;2023-04-24T01:27:58;13.30;99.90
59025;DHT22;44806;48.008;13.666;2023-04-24T01:30:26;13.20;99.90
59025;DHT22;44806;48.008;13.666;2023-04-24T01:32:53;13.20;99.90
59025;DHT22;44806;48.008;13.666;2023-04-24T01:35:21;13.10;99.90
59025;DHT22;44806;48.008;13.666;2023-04-24T01:37:49;13.10;99.90
59025;DHT22;44806;48.008;13.666;2023-04-24T01:40:17;13.00;99.90
59025;DHT22;44806;48.008;13.666;2023-04-24T01:42:45;13.00;99.90
59025;DHT22;44806;48.008;13.666;2023-04-24T01:45:12;13.00;99.90
59025;DHT22;44806;48.008;13.666;2023-04-24T01:47:39;13.00;99.90
59025;DHT22;44806;48.008;13.666;2023-04-24T01:50:08;12.90;99.90
59025;DHT22;44806;48.008;13.666;2023-04-24T01:52:38;12.80;99.90
59025;DHT22;44806;48.008;13.666;2023-04-24T01:55:06;12.80;99.90
59025;DHT22;44806;48.008;13.666;2023-04-24T01:57:38;12.80;99.90
59025;DHT22;44806;48.008;13.666;2023-04-24T02:00:09;12.80;99.90
59025;DHT22;44806;48.008;13.666;2023-04-24T02:02:38;12.80;99.90
59025;DHT22;44806;48.008;13.666;2023-04-24T02:05:06;12.80;99.90
59025;DHT22;44806;48.008;13.666;2023-04-24T02:07:34;12.80;99.90
59025;DHT22;44806;48.008;13.666;2023-04-24T02:10:04;12.70;99.90
59025;DHT22;44806;48.008;13.666;2023-04-24T02:12:31;12.70;99.90
59025;DHT22;44806;48.008;13.666;2023-04-24T02:15:00;12.70;99.90
59025;DHT22;44806;48.008;13.666;2023-04-24T02:17:27;12.70;99.90
59025;DHT22;44806;48.008;13.666;2023-04-24T02:19:54;12.70;99.90
59025;DHT22;44806;48.008;13.666;2023-04-24T02:22:21;12.60;99.90
59025;DHT22;44806;48.008;13.666;2023-04-24T02:24:49;12.50;99.90
59025;DHT22;44806;48.008;13.666;2023-04-24T02:27:18;12.40;99.90
59025;DHT22;44806;48.008;13.666;2023-04-24T02:29:45;12.40;99.90
59025;DHT22;44806;48.008;13.666;2023-04-24T02:34:42;12.30;99.90
59025;DHT22;44806;48.008;13.666;2023-04-24T02:37:09;12.40;99.90
59025;DHT22;44806;48.008;13.666;2023-04-24T02:39:36;12.30;99.90
59025;DHT22;44806;48.008;13.666;2023-04-24T02:42:03;12.30;99.90
59025;DHT22;44806;48.008;13.666;2023-04-24T02:44:30;12.30;99.90
59025;DHT22;44806;48.008;13.666;2023-04-24T02:46:56;12.30;99.90
59025;DHT22;44806;48.008;13.666;2023-04-24T02:49:23;12.30;99.90
59025;DHT22;44806;48.008;13.666;2023-04-24T02:51:52;12.20;99.90
59025;DHT22;44806;48.008;13.666;2023-04-24T02:54:19;12.20;99.90
59025;DHT22;44806;48.008;13.666;2023-04-24T02:56:46;12.20;99.90
59025;DHT22;44806;48.008;13.666;2023-04-24T02:59:13;12.20;99.90
59025;DHT22;44806;48.008;13.666;2023-04-24T03:01:40;12.10;99.90
59025;DHT22;44806;48.008;13.666;2023-04-24T03:04:07;12.20;99.90
59025;DHT22;44806;48.008;13.666;2023-04-24T03:06:35;12.20;99.90
59025;DHT22;44806;48.008;13.666;2023-04-24T03:09:04;12.20;99.90
59025;DHT22;44806;48.008;13.666;2023-04-24T03:11:31;12.20;99.90
59025;DHT22;44806;48.008;13.666;2023-04-24T03:13:58;12.10;99.90
59025;DHT22;44806;48.008;13.666;2023-04-24T03:16:24;12.00;99.90
59025;DHT22;44806;48.008;13.666;2023-04-24T03:18:52;11.90;99.90
59025;DHT22;44806;48.008;13.666;2023-04-24T03:21:18;12.00;99.90
59025;DHT22;44806;48.008;13.666;2023-04-24T03:23:45;12.00;99.90
59025;DHT22;44806;48.008;13.666;2023-04-24T03:26:14;12.00;99.90
59025;DHT22;44806;48.008;13.666;2023-04-24T03:28:40;12.00;99.90
59025;DHT22;44806;48.008;13.666;2023-04-24T03:31:07;11.90;99.90
59025;DHT22;44806;48.008;13.666;2023-04-24T03:33:34;11.80;99.90
59025;DHT22;44806;48.008;13.666;2023-04-24T03:36:02;11.80;99.90
59025;DHT22;44806;48.008;13.666;2023-04-24T03:38:29;11.90;99.90
59025;DHT22;44806;48.008;13.666;2023-04-24T03:40:56;11.90;99.90
59025;DHT22;44806;48.008;13.666;2023-04-24T03:43:24;11.80;99.90
59025;DHT22;44806;48.008;13.666;2023-04-24T03:45:52;11.90;99.90
59025;DHT22;44806;48.008;13.666;2023-04-24T03:48:19;11.90;99.90
59025;DHT22;44806;48.008;13.666;2023-04-24T03:50:46;11.80;99.90
59025;DHT22;44806;48.008;13.666;2023-04-24T03:53:13;11.80;99.90
59025;DHT22;44806;48.008;13.666;2023-04-24T03:55:40;11.80;99.90
59025;DHT22;44806;48.008;13.666;2023-04-24T03:58:07;11.70;99.90
59025;DHT22;44806;48.008;13.666;2023-04-24T04:00:35;11.60;99.90
59025;DHT22;44806;48.008;13.666;2023-04-24T04:03:03;11.60;99.90
59025;DHT22;44806;48.008;13.666;2023-04-24T04:05:30;11.70;99.90
59025;DHT22;44806;48.008;13.666;2023-04-24T04:07:56;11.70;99.90
59025;DHT22;44806;48.008;13.666;2023-04-24T04:10:23;11.60;99.90
59025;DHT22;44806;48.008;13.666;2023-04-24T04:12:50;11.50;99.90
59025;DHT22;44806;48.008;13.666;2023-04-24T04:15:17;11.50;99.90
59025;DHT22;44806;48.008;13.666;2023-04-24T04:17:46;11.50;99.90
59025;DHT22;44806;48.008;13.666;2023-04-24T04:20:12;11.50;99.90
59025;DHT22;44806;48.008;13.666;2023-04-24T04:22:39;11.40;99.90
59025;DHT22;44806;48.008;13.666;2023-04-24T04:25:07;11.30;99.90
59025;DHT22;44806;48.008;13.666;2023-04-24T04:27:34;11.40;99.90
59025;DHT22;44806;48.008;13.666;2023-04-24T04:30:02;11.30;99.90
59025;DHT22;44806;48.008;13.666;2023-04-24T04:32:30;11.30;99.90
59025;DHT22;44806;48.008;13.666;2023-04-24T04:34:59;11.30;99.90
59025;DHT22;44806;48.008;13.666;2023-04-24T04:37:28;11.30;99.90
59025;DHT22;44806;48.008;13.666;2023-04-24T04:39:55;11.30;99.90
59025;DHT22;44806;48.008;13.666;2023-04-24T04:42:23;11.30;99.90
59025;DHT22;44806;48.008;13.666;2023-04-24T04:44:50;11.40;99.90
59025;DHT22;44806;48.008;13.666;2023-04-24T04:47:17;11.40;99.90
59025;DHT22;44806;48.008;13.666;2023-04-24T04:49:44;11.40;99.90
59025;DHT22;44806;48.008;13.666;2023-04-24T04:52:12;11.30;99.90
59025;DHT22;44806;48.008;13.666;2023-04-24T04:54:39;11.30;99.90
59025;DHT22;44806;48.008;13.666;2023-04-24T04:57:06;11.40;99.90
59025;DHT22;44806;48.008;13.666;2023-04-24T04:59:33;11.40;99.90
59025;DHT22;44806;48.008;13.666;2023-04-24T05:02:00;11.40;99.90
59025;DHT22;44806;48.008;13.666;2023-04-24T05:04:27;11.40;99.90
59025;DHT22;44806;48.008;13.666;2023-04-24T05:06:54;11.40;99.90
59025;DHT22;44806;48.008;13.666;2023-04-24T05:09:23;11.40;99.90
59025;DHT22;44806;48.008;13.666;2023-04-24T05:11:52;11.40;99.90
59025;DHT22;44806;48.008;13.666;2023-04-24T05:14:19;11.40;99.90
59025;DHT22;44806;48.008;13.666;2023-04-24T05:16:47;11.40;99.90
59025;DHT22;44806;48.008;13.666;2023-04-24T05:19:14;11.40;99.90
59025;DHT22;44806;48.008;13.666;2023-04-24T05:21:41;11.40;99.90
59025;DHT22;44806;48.008;13.666;2023-04-24T05:24:08;11.40;99.90
59025;DHT22;44806;48.008;13.666;2023-04-24T05:26:37;11.50;99.90
59025;DHT22;44806;48.008;13.666;2023-04-24T05:29:04;11.40;99.90
59025;DHT22;44806;48.008;13.666;2023-04-24T05:31:31;11.50;99.90
59025;DHT22;44806;48.008;13.666;2023-04-24T05:33:58;11.50;99.90
59025;DHT22;44806;48.008;13.666;2023-04-24T05:36:25;11.50;99.90
59025;DHT22;44806;48.008;13.666;2023-04-24T05:38:52;11.50;99.90
59025;DHT22;44806;48.008;13.666;2023-04-24T05:41:19;11.50;99.90
59025;DHT22;44806;48.008;13.666;2023-04-24T05:43:49;11.50;99.90
59025;DHT22;44806;48.008;13.666;2023-04-24T05:46:16;11.50;99.90
59025;DHT22;44806;48.008;13.666;2023-04-24T05:48:43;11.60;99.90
59025;DHT22;44806;48.008;13.666;2023-04-24T05:51:10;11.70;99.90
59025;DHT22;44806;48.008;13.666;2023-04-24T05:53:37;11.60;99.90
59025;DHT22;44806;48.008;13.666;2023-04-24T05:56:04;11.70;99.90
59025;DHT22;44806;48.008;13.666;2023-04-24T05:58:31;11.70;99.90
59025;DHT22;44806;48.008;13.666;2023-04-24T06:00:59;11.60;99.90
59025;DHT22;44806;48.008;13.666;2023-04-24T06:03:27;11.70;99.90
59025;DHT22;44806;48.008;13.666;2023-04-24T06:05:54;11.70;99.90
59025;DHT22;44806;48.008;13.666;2023-04-24T06:08:21;11.60;99.90
59025;DHT22;44806;48.008;13.666;2023-04-24T06:10:48;11.60;99.90
59025;DHT22;44806;48.008;13.666;2023-04-24T06:13:15;11.60;99.90
59025;DHT22;44806;48.008;13.666;2023-04-24T06:15:43;11.70;99.90
59025;DHT22;44806;48.008;13.666;2023-04-24T06:18:11;11.70;99.90
59025;DHT22;44806;48.008;13.666;2023-04-24T06:20:38;11.80;99.90
59025;DHT22;44806;48.008;13.666;2023-04-24T06:23:05;11.70;99.90
59025;DHT22;44806;48.008;13.666;2023-04-24T06:25:32;11.60;99.90
59025;DHT22;44806;48.008;13.666;2023-04-24T06:27:59;11.70;99.90
59025;DHT22;44806;48.008;13.666;2023-04-24T06:30:27;11.60;99.90
59025;DHT22;44806;48.008;13.666;2023-04-24T06:32:54;11.60;99.90
59025;DHT22;44806;48.008;13.666;2023-04-24T06:35:22;11.60;99.90
59025;DHT22;44806;48.008;13.666;2023-04-24T06:37:49;11.60;99.90
59025;DHT22;44806;48.008;13.666;2023-04-24T06:40:16;11.60;99.90
59025;DHT22;44806;48.008;13.666;2023-04-24T06:42:44;11.70;99.90
59025;DHT22;44806;48.008;13.666;2023-04-24T06:45:11;11.60;99.90
59025;DHT22;44806;48.008;13.666;2023-04-24T06:47:38;11.60;99.90
59025;DHT22;44806;48.008;13.666;2023-04-24T06:50:06;11.60;99.90
59025;DHT22;44806;48.008;13.666;2023-04-24T06:52:35;11.60;99.90
59025;DHT22;44806;48.008;13.666;2023-04-24T06:55:02;11.50;99.90
59025;DHT22;44806;48.008;13.666;2023-04-24T06:57:29;11.60;99.90
59025;DHT22;44806;48.008;13.666;2023-04-24T06:59:56;11.60;99.90
59025;DHT22;44806;48.008;13.666;2023-04-24T07:02:24;11.60;99.90
59025;DHT22;44806;48.008;13.666;2023-04-24T07:04:51;11.60;99.90
59025;DHT22;44806;48.008;13.666;2023-04-24T07:07:18;11.50;99.90
59025;DHT22;44806;48.008;13.666;2023-04-24T07:09:46;11.50;99.90
59025;DHT22;44806;48.008;13.666;2023-04-24T07:12:14;11.50;99.90
59025;DHT22;44806;48.008;13.666;2023-04-24T07:14:42;11.50;99.90
59025;DHT22;44806;48.008;13.666;2023-04-24T07:17:09;11.60;99.90
59025;DHT22;44806;48.008;13.666;2023-04-24T07:19:38;11.60;99.90
59025;DHT22;44806;48.008;13.666;2023-04-24T07:22:05;11.60;99.90
59025;DHT22;44806;48.008;13.666;2023-04-24T07:24:32;11.60;99.90
59025;DHT22;44806;48.008;13.666;2023-04-24T07:27:00;11.60;99.90
59025;DHT22;44806;48.008;13.666;2023-04-24T07:29:27;11.60;99.90
59025;DHT22;44806;48.008;13.666;2023-04-24T07:31:54;11.60;99.90
59025;DHT22;44806;48.008;13.666;2023-04-24T07:34:22;11.70;99.90
59025;DHT22;44806;48.008;13.666;2023-04-24T07:36:48;11.70;99.90
59025;DHT22;44806;48.008;13.666;2023-04-24T07:39:15;11.80;99.90
59025;DHT22;44806;48.008;13.666;2023-04-24T07:41:42;11.70;99.90
59025;DHT22;44806;48.008;13.666;2023-04-24T07:44:11;11.80;99.90
59025;DHT22;44806;48.008;13.666;2023-04-24T07:46:38;11.80;99.90
59025;DHT22;44806;48.008;13.666;2023-04-24T07:49:05;11.90;99.90
59025;DHT22;44806;48.008;13.666;2023-04-24T07:51:32;11.90;99.90
59025;DHT22;44806;48.008;13.666;2023-04-24T07:54:03;12.00;99.90
59025;DHT22;44806;48.008;13.666;2023-04-24T07:56:31;12.00;99.90
59025;DHT22;44806;48.008;13.666;2023-04-24T07:58:58;12.20;99.90
59025;DHT22;44806;48.008;13.666;2023-04-24T08:01:27;12.20;99.90
59025;DHT22;44806;48.008;13.666;2023-04-24T08:03:54;12.20;99.90
59025;DHT22;44806;48.008;13.666;2023-04-24T08:06:21;12.30;99.90
59025;DHT22;44806;48.008;13.666;2023-04-24T08:08:48;12.40;99.90
59025;DHT22;44806;48.008;13.666;2023-04-24T08:11:17;12.40;99.90
59025;DHT22;44806;48.008;13.666;2023-04-24T08:13:43;12.30;99.90
59025;DHT22;44806;48.008;13.666;2023-04-24T08:16:10;12.40;99.90
59025;DHT22;44806;48.008;13.666;2023-04-24T08:18:39;12.20;99.90
59025;DHT22;44806;48.008;13.666;2023-04-24T08:21:06;12.20;99.90
59025;DHT22;44806;48.008;13.666;2023-04-24T08:23:33;12.30;99.90
59025;DHT22;44806;48.008;13.666;2023-04-24T08:26:00;12.40;99.90
59025;DHT22;44806;48.008;13.666;2023-04-24T08:28:26;12.40;99.90
59025;DHT22;44806;48.008;13.666;2023-04-24T08:30:53;12.30;99.90
59025;DHT22;44806;48.008;13.666;2023-04-24T08:33:23;12.40;99.90
59025;DHT22;44806;48.008;13.666;2023-04-24T08:35:52;12.40;99.90
59025;DHT22;44806;48.008;13.666;2023-04-24T08:38:19;12.30;99.90
59025;DHT22;44806;48.008;13.666;2023-04-24T08:40:47;12.20;99.90
59025;DHT22;44806;48.008;13.666;2023-04-24T08:43:15;12.20;99.90
59025;DHT22;44806;48.008;13.666;2023-04-24T08:45:42;12.20;99.90
59025;DHT22;44806;48.008;13.666;2023-04-24T08:48:09;12.10;99.90
59025;DHT22;44806;48.008;13.666;2023-04-24T08:50:37;12.10;99.90
59025;DHT22;44806;48.008;13.666;2023-04-24T08:53:09;12.20;99.90
59025;DHT22;44806;48.008;13.666;2023-04-24T08:55:36;12.10;99.90
59025;DHT22;44806;48.008;13.666;2023-04-24T08:58:04;12.30;99.90
59025;DHT22;44806;48.008;13.666;2023-04-24T09:00:31;12.30;99.90
59025;DHT22;44806;48.008;13.666;2023-04-24T09:03:00;12.30;99.90
59025;DHT22;44806;48.008;13.666;2023-04-24T09:05:28;12.20;99.90
59025;DHT22;44806;48.008;13.666;2023-04-24T09:07:56;12.30;99.90
59025;DHT22;44806;48.008;13.666;2023-04-24T09:10:25;12.40;99.90
59025;DHT22;44806;48.008;13.666;2023-04-24T09:12:54;12.40;99.90
59025;DHT22;44806;48.008;13.666;2023-04-24T09:15:21;12.50;99.90
59025;DHT22;44806;48.008;13.666;2023-04-24T09:17:49;12.60;99.90
59025;DHT22;44806;48.008;13.666;2023-04-24T09:20:16;12.60;99.90
59025;DHT22;44806;48.008;13.666;2023-04-24T09:22:45;12.70;99.90
59025;DHT22;44806;48.008;13.666;2023-04-24T09:25:12;12.80;99.90
59025;DHT22;44806;48.008;13.666;2023-04-24T09:27:43;12.90;99.90
59025;DHT22;44806;48.008;13.666;2023-04-24T09:30:12;13.00;99.90
59025;DHT22;44806;48.008;13.666;2023-04-24T09:32:39;13.00;99.90
59025;DHT22;44806;48.008;13.666;2023-04-24T09:35:09;13.10;99.90
59025;DHT22;44806;48.008;13.666;2023-04-24T09:37:37;13.10;99.90
59025;DHT22;44806;48.008;13.666;2023-04-24T09:40:09;13.00;99.90
59025;DHT22;44806;48.008;13.666;2023-04-24T09:42:36;13.00;99.90
59025;DHT22;44806;48.008;13.666;2023-04-24T09:45:08;13.00;99.90
59025;DHT22;44806;48.008;13.666;2023-04-24T09:47:36;13.00;99.90
59025;DHT22;44806;48.008;13.666;2023-04-24T09:50:11;13.00;99.90
59025;DHT22;44806;48.008;13.666;2023-04-24T09:52:46;13.00;99.90
59025;DHT22;44806;48.008;13.666;2023-04-24T09:55:16;13.00;99.90
59025;DHT22;44806;48.008;13.666;2023-04-24T09:57:51;13.00;99.90
59025;DHT22;44806;48.008;13.666;2023-04-24T10:00:21;13.00;99.90
59025;DHT22;44806;48.008;13.666;2023-04-24T10:02:56;13.00;99.90
59025;DHT22;44806;48.008;13.666;2023-04-24T10:05:24;13.10;99.90
59025;DHT22;44806;48.008;13.666;2023-04-24T10:07:52;13.00;99.90
59025;DHT22;44806;48.008;13.666;2023-04-24T10:10:22;12.90;99.90
59025;DHT22;44806;48.008;13.666;2023-04-24T10:12:51;12.80;99.90
59025;DHT22;44806;48.008;13.666;2023-04-24T10:15:20;12.80;99.90
59025;DHT22;44806;48.008;13.666;2023-04-24T10:17:48;12.70;99.90
59025;DHT22;44806;48.008;13.666;2023-04-24T10:20:19;12.70;99.90
59025;DHT22;44806;48.008;13.666;2023-04-24T10:22:48;12.70;99.90
59025;DHT22;44806;48.008;13.666;2023-04-24T10:25:18;12.80;99.90
59025;DHT22;44806;48.008;13.666;2023-04-24T10:27:46;12.80;99.90
59025;DHT22;44806;48.008;13.666;2023-04-24T10:30:14;12.80;99.90
59025;DHT22;44806;48.008;13.666;2023-04-24T10:32:42;12.90;99.90
59025;DHT22;44806;48.008;13.666;2023-04-24T10:35:12;13.00;99.90
59025;DHT22;44806;48.008;13.666;2023-04-24T10:37:42;13.00;99.90
59025;DHT22;44806;48.008;13.666;2023-04-24T10:40:10;12.90;99.90
59025;DHT22;44806;48.008;13.666;2023-04-24T10:42:40;13.00;99.90
59025;DHT22;44806;48.008;13.666;2023-04-24T10:45:16;13.10;99.90
59025;DHT22;44806;48.008;13.666;2023-04-24T10:47:51;13.30;99.90
59025;DHT22;44806;48.008;13.666;2023-04-24T10:50:19;13.30;99.90
59025;DHT22;44806;48.008;13.666;2023-04-24T10:52:46;13.50;99.90
59025;DHT22;44806;48.008;13.666;2023-04-24T10:55:14;13.50;99.90
59025;DHT22;44806;48.008;13.666;2023-04-24T10:58:01;13.50;99.90
59025;DHT22;44806;48.008;13.666;2023-04-24T11:00:29;13.50;99.90
59025;DHT22;44806;48.008;13.666;2023-04-24T11:02:57;13.70;99.90
59025;DHT22;44806;48.008;13.666;2023-04-24T11:05:50;13.90;99.90
59025;DHT22;44806;48.008;13.666;2023-04-24T11:08:23;14.10;99.90
59025;DHT22;44806;48.008;13.666;2023-04-24T11:11:02;14.00;99.90
59025;DHT22;44806;48.008;13.666;2023-04-24T11:14:00;14.20;99.90
59025;DHT22;44806;48.008;13.666;2023-04-24T11:16:29;14.30;99.90
59025;DHT22;44806;48.008;13.666;2023-04-24T11:19:05;14.20;99.90
59025;DHT22;44806;48.008;13.666;2023-04-24T11:21:38;13.80;99.90
59025;DHT22;44806;48.008;13.666;2023-04-24T11:24:29;13.50;99.90
59025;DHT22;44806;48.008;13.666;2023-04-24T11:27:00;13.50;99.90
59025;DHT22;44806;48.008;13.666;2023-04-24T11:29:42;13.50;99.90
59025;DHT22;44806;48.008;13.666;2023-04-24T11:32:16;13.40;99.90
59025;DHT22;44806;48.008;13.666;2023-04-24T11:34:47;13.30;99.90
59025;DHT22;44806;48.008;13.666;2023-04-24T11:37:14;13.30;99.90
59025;DHT22;44806;48.008;13.666;2023-04-24T11:39:41;13.30;99.90
59025;DHT22;44806;48.008;13.666;2023-04-24T11:42:09;13.50;99.90
59025;DHT22;44806;48.008;13.666;2023-04-24T11:44:36;13.50;99.90
59025;DHT22;44806;48.008;13.666;2023-04-24T11:47:04;13.50;99.90
59025;DHT22;44806;48.008;13.666;2023-04-24T11:49:31;13.40;99.90
59025;DHT22;44806;48.008;13.666;2023-04-24T11:51:59;13.10;99.90
59025;DHT22;44806;48.008;13.666;2023-04-24T11:54:26;12.80;99.90
59025;DHT22;44806;48.008;13.666;2023-04-24T11:56:53;12.60;99.90
59025;DHT22;44806;48.008;13.666;2023-04-24T11:59:21;12.20;99.90
59025;DHT22;44806;48.008;13.666;2023-04-24T12:01:48;12.30;99.90
59025;DHT22;44806;48.008;13.666;2023-04-24T12:24:29;12.60;99.90
59025;DHT22;44806;48.008;13.666;2023-04-24T12:26:57;12.60;99.90
59025;DHT22;44806;48.008;13.666;2023-04-24T12:29:24;12.70;99.90
59025;DHT22;44806;48.008;13.666;2023-04-24T12:31:52;12.90;99.90
59025;DHT22;44806;48.008;13.666;2023-04-24T12:34:19;13.00;99.90
59025;DHT22;44806;48.008;13.666;2023-04-24T12:37:09;13.10;99.90
59025;DHT22;44806;48.008;13.666;2023-04-24T13:00:46;13.70;99.90
59025;DHT22;44806;48.008;13.666;2023-04-24T13:03:14;13.80;99.90
59025;DHT22;44806;48.008;13.666;2023-04-24T13:05:42;13.90;99.90
59025;DHT22;44806;48.008;13.666;2023-04-24T13:08:09;13.80;99.90
59025;DHT22;44806;48.008;13.666;2023-04-24T13:10:36;13.80;99.90
59025;DHT22;44806;48.008;13.666;2023-04-24T13:13:03;13.90;99.90
59025;DHT22;44806;48.008;13.666;2023-04-24T13:15:30;14.00;99.90
59025;DHT22;44806;48.008;13.666;2023-04-24T13:17:58;14.10;99.90
59025;DHT22;44806;48.008;13.666;2023-04-24T13:20:26;14.10;99.90
59025;DHT22;44806;48.008;13.666;2023-04-24T13:22:53;14.20;99.90
59025;DHT22;44806;48.008;13.666;2023-04-24T13:25:20;14.10;99.90
59025;DHT22;44806;48.008;13.666;2023-04-24T13:27:48;14.00;99.90
59025;DHT22;44806;48.008;13.666;2023-04-24T13:30:15;14.00;99.90
59025;DHT22;44806;48.008;13.666;2023-04-24T13:32:42;14.00;99.90
59025;DHT22;44806;48.008;13.666;2023-04-24T13:35:10;13.90;99.90
59025;DHT22;44806;48.008;13.666;2023-04-24T13:37:37;14.00;99.90
59025;DHT22;44806;48.008;13.666;2023-04-24T13:40:05;13.90;99.90
59025;DHT22;44806;48.008;13.666;2023-04-24T13:42:32;13.90;99.90
59025;DHT22;44806;48.008;13.666;2023-04-24T13:44:59;13.90;99.90
59025;DHT22;44806;48.008;13.666;2023-04-24T13:47:26;13.90;99.90
59025;DHT22;44806;48.008;13.666;2023-04-24T13:49:53;13.90;99.90
59025;DHT22;44806;48.008;13.666;2023-04-24T13:52:22;13.40;99.90
59025;DHT22;44806;48.008;13.666;2023-04-24T13:54:48;12.90;99.90
59025;DHT22;44806;48.008;13.666;2023-04-24T13:57:16;12.50;99.90
59025;DHT22;44806;48.008;13.666;2023-04-24T13:59:43;12.30;99.90
59025;DHT22;44806;48.008;13.666;2023-04-24T14:02:10;12.30;99.90
59025;DHT22;44806;48.008;13.666;2023-04-24T14:04:37;12.10;99.90
59025;DHT22;44806;48.008;13.666;2023-04-24T14:07:04;12.10;99.90
59025;DHT22;44806;48.008;13.666;2023-04-24T14:09:32;12.20;99.90
59025;DHT22;44806;48.008;13.666;2023-04-24T14:11:59;12.10;99.90
59025;DHT22;44806;48.008;13.666;2023-04-24T14:14:27;12.20;99.90
59025;DHT22;44806;48.008;13.666;2023-04-24T14:16:55;12.10;99.90
59025;DHT22;44806;48.008;13.666;2023-04-24T14:19:22;12.10;99.90
59025;DHT22;44806;48.008;13.666;2023-04-24T14:21:49;12.10;99.90
59025;DHT22;44806;48.008;13.666;2023-04-24T14:24:16;12.10;99.90
59025;DHT22;44806;48.008;13.666;2023-04-24T14:26:44;12.10;99.90
59025;DHT22;44806;48.008;13.666;2023-04-24T14:29:11;12.10;99.90
59025;DHT22;44806;48.008;13.666;2023-04-24T14:31:38;12.10;99.90
59025;DHT22;44806;48.008;13.666;2023-04-24T14:34:05;12.30;99.90
59025;DHT22;44806;48.008;13.666;2023-04-24T14:36:32;12.10;99.90
59025;DHT22;44806;48.008;13.666;2023-04-24T14:38:59;12.30;99.90
59025;DHT22;44806;48.008;13.666;2023-04-24T14:41:28;12.30;99.90
59025;DHT22;44806;48.008;13.666;2023-04-24T14:43:57;12.30;99.90
59025;DHT22;44806;48.008;13.666;2023-04-24T14:46:24;12.40;99.90
59025;DHT22;44806;48.008;13.666;2023-04-24T14:48:51;12.50;99.90
59025;DHT22;44806;48.008;13.666;2023-04-24T14:51:17;12.40;99.90
59025;DHT22;44806;48.008;13.666;2023-04-24T14:53:44;12.40;99.90
59025;DHT22;44806;48.008;13.666;2023-04-24T14:56:12;12.40;99.90
59025;DHT22;44806;48.008;13.666;2023-04-24T14:58:39;12.50;99.90
59025;DHT22;44806;48.008;13.666;2023-04-24T15:01:07;12.50;99.90
59025;DHT22;44806;48.008;13.666;2023-04-24T15:03:34;12.50;99.90
59025;DHT22;44806;48.008;13.666;2023-04-24T15:06:01;12.60;99.90
59025;DHT22;44806;48.008;13.666;2023-04-24T15:08:28;12.70;99.90
59025;DHT22;44806;48.008;13.666;2023-04-24T15:10:55;12.60;99.90
59025;DHT22;44806;48.008;13.666;2023-04-24T15:13:22;12.70;99.90
59025;DHT22;44806;48.008;13.666;2023-04-24T15:15:49;12.60;99.90
59025;DHT22;44806;48.008;13.666;2023-04-24T15:18:18;12.60;99.90
59025;DHT22;44806;48.008;13.666;2023-04-24T15:20:44;12.30;99.90
59025;DHT22;44806;48.008;13.666;2023-04-24T15:23:11;12.20;99.90
59025;DHT22;44806;48.008;13.666;2023-04-24T15:25:38;11.90;99.90
59025;DHT22;44806;48.008;13.666;2023-04-24T15:28:05;11.60;99.90
59025;DHT22;44806;48.008;13.666;2023-04-24T15:30:32;11.60;99.90
59025;DHT22;44806;48.008;13.666;2023-04-24T15:33:00;11.40;99.90
59025;DHT22;44806;48.008;13.666;2023-04-24T15:35:29;11.30;99.90
59025;DHT22;44806;48.008;13.666;2023-04-24T15:37:56;11.40;99.90
59025;DHT22;44806;48.008;13.666;2023-04-24T15:40:23;11.50;99.90
59025;DHT22;44806;48.008;13.666;2023-04-24T15:42:49;11.50;99.90
59025;DHT22;44806;48.008;13.666;2023-04-24T15:45:16;11.40;99.90
59025;DHT22;44806;48.008;13.666;2023-04-24T15:47:44;11.50;99.90
59025;DHT22;44806;48.008;13.666;2023-04-24T15:50:12;11.40;99.90
59025;DHT22;44806;48.008;13.666;2023-04-24T15:52:43;11.50;99.90
59025;DHT22;44806;48.008;13.666;2023-04-24T15:55:10;11.40;99.90
59025;DHT22;44806;48.008;13.666;2023-04-24T15:57:38;11.30;99.90
59025;DHT22;44806;48.008;13.666;2023-04-24T16:00:06;11.30;99.90
59025;DHT22;44806;48.008;13.666;2023-04-24T16:02:34;11.20;99.90
59025;DHT22;44806;48.008;13.666;2023-04-24T16:05:01;11.10;99.90